createdAt,value
2022-11-17T00:02:21.991Z,17.27
2022-11-17T00:07:18.311Z,17.20
2022-11-17T00:12:33.323Z,16.77
2022-11-17T00:17:29.527Z,16.02
2022-11-17T00:22:25.780Z,16.60
2022-11-17T00:27:22.079Z,15.90
2022-11-17T00:32:37.644Z,16.30
2022-11-17T00:37:35.363Z,16.77
2022-11-17T00:42:31.561Z,17.60
2022-11-17T00:47:27.775Z,17.45
2022-11-17T00:52:23.981Z,16.52
2022-11-17T00:57:20.187Z,16.75
2022-11-17T01:02:16.392Z,17.90
2022-11-17T01:07:12.609Z,16.08
2022-11-17T01:12:10.106Z,16.42
2022-11-17T01:17:06.341Z,16.65
2022-11-17T01:22:02.566Z,16.73
2022-11-17T01:26:58.776Z,17.35
2022-11-17T01:31:54.980Z,16.23
2022-11-17T01:37:10.112Z,17.38
2022-11-17T01:42:11.755Z,17.00
2022-11-17T01:47:13.888Z,18.23
2022-11-17T01:52:10.719Z,16.27
2022-11-17T01:57:09.766Z,16.30
2022-11-17T02:02:06.919Z,16.33
2022-11-17T02:07:08.224Z,16.63
2022-11-17T02:12:05.627Z,17.48
2022-11-17T02:17:10.104Z,17.40
2022-11-17T02:22:09.497Z,16.90
2022-11-17T02:27:19.049Z,17.40
2022-11-17T02:32:29.884Z,15.93
2022-11-17T02:37:28.880Z,16.55
2022-11-17T02:42:47.643Z,16.73
2022-11-17T02:47:46.742Z,16.27
2022-11-17T02:52:42.965Z,15.90
2022-11-17T02:57:40.296Z,15.80
2022-11-17T03:02:55.322Z,16.58
2022-11-17T03:08:08.774Z,17.58
2022-11-17T03:13:11.032Z,16.10
2022-11-17T03:18:25.310Z,15.38
2022-11-17T03:23:25.248Z,16.08
2022-11-17T03:28:23.471Z,15.88
2022-11-17T03:33:21.303Z,14.88
2022-11-17T03:38:20.465Z,15.27
2022-11-17T03:43:17.631Z,15.88
2022-11-17T03:48:16.819Z,15.52
2022-11-17T03:53:13.447Z,15.65
2022-11-17T03:58:12.811Z,15.90
2022-11-17T04:03:09.145Z,14.25
2022-11-17T04:08:05.421Z,15.45
2022-11-17T04:13:20.352Z,15.00
2022-11-17T04:18:16.826Z,16.05
2022-11-17T04:23:14.591Z,15.50
2022-11-17T04:28:29.650Z,15.00
2022-11-17T04:33:25.817Z,15.77
2022-11-17T04:38:22.028Z,15.13
2022-11-17T04:43:18.258Z,15.68
2022-11-17T04:48:14.452Z,15.45
2022-11-17T04:53:10.637Z,16.92
2022-11-17T04:58:07.167Z,16.90
2022-11-17T05:03:03.373Z,17.55
2022-11-17T05:07:59.796Z,16.30
2022-11-17T05:13:14.726Z,17.35
2022-11-17T05:18:10.937Z,18.15
2022-11-17T05:23:25.732Z,17.77
2022-11-17T05:28:21.965Z,17.98
2022-11-17T05:33:18.141Z,17.90
2022-11-17T05:38:14.345Z,16.88
2022-11-17T05:43:10.567Z,18.30
2022-11-17T05:48:06.893Z,18.98
2022-11-17T05:53:03.195Z,18.30
2022-11-17T05:58:06.474Z,19.77
2022-11-17T06:03:05.144Z,19.50
2022-11-17T06:08:01.502Z,19.83
2022-11-17T06:12:57.682Z,20.85
2022-11-17T06:17:59.905Z,21.05
2022-11-17T06:22:57.467Z,20.10
2022-11-17T06:27:53.910Z,20.65
2022-11-17T06:32:50.483Z,21.63
2022-11-17T06:37:46.726Z,20.50
2022-11-17T06:43:01.662Z,20.40
2022-11-17T06:47:58.041Z,20.77
2022-11-17T06:52:57.759Z,21.35
2022-11-17T06:58:00.961Z,21.27
2022-11-17T07:03:00.956Z,21.33
2022-11-17T07:07:58.913Z,22.58
2022-11-17T07:12:55.235Z,21.90
2022-11-17T07:17:51.536Z,23.25
2022-11-17T07:22:48.555Z,20.38
2022-11-17T07:27:44.783Z,20.98
2022-11-17T07:32:41.152Z,21.13
2022-11-17T07:37:37.389Z,21.15
2022-11-17T07:42:33.691Z,20.95
2022-11-17T07:47:29.957Z,19.55
2022-11-17T07:52:26.188Z,19.98
2022-11-17T07:57:22.456Z,21.75
2022-11-17T08:02:18.683Z,21.90
2022-11-17T08:07:15.027Z,21.42
2022-11-17T08:12:11.351Z,23.65
2022-11-17T08:17:07.580Z,21.23
2022-11-17T08:22:03.923Z,21.30
2022-11-17T08:27:00.202Z,25.98
2022-11-17T08:31:56.495Z,21.02
2022-11-17T08:36:52.854Z,20.55
2022-11-17T08:41:51.082Z,20.27
2022-11-17T08:46:48.904Z,21.88
2022-11-17T08:51:45.192Z,21.42
2022-11-17T08:56:41.594Z,20.95
2022-11-17T09:01:37.981Z,21.58
2022-11-17T09:06:34.208Z,22.80
2022-11-17T09:11:30.759Z,22.40
2022-11-17T09:16:27.066Z,20.85
2022-11-17T09:21:23.399Z,20.95
2022-11-17T09:26:19.883Z,22.17
2022-11-17T09:31:17.301Z,22.80
2022-11-17T09:36:16.019Z,21.17
2022-11-17T09:41:12.485Z,24.00
2022-11-17T09:46:16.759Z,22.67
2022-11-17T09:51:15.384Z,22.20
2022-11-17T09:56:13.472Z,22.00
2022-11-17T10:01:13.794Z,22.98
2022-11-17T10:06:15.718Z,22.40
2022-11-17T10:11:31.362Z,23.00
2022-11-17T10:16:27.639Z,24.30
2022-11-17T10:21:24.064Z,23.67
2022-11-17T10:26:20.355Z,25.80
2022-11-17T10:31:17.794Z,24.10
2022-11-17T10:36:40.413Z,24.98
2022-11-17T10:41:38.847Z,23.60
2022-11-17T10:46:55.429Z,26.75
2022-11-17T10:52:05.793Z,24.00
2022-11-17T10:57:05.552Z,25.92
2022-11-17T11:02:26.040Z,25.88
2022-11-17T11:07:23.433Z,28.70
2022-11-17T11:12:24.880Z,34.00
2022-11-17T11:17:21.177Z,37.28
2022-11-17T11:22:27.962Z,41.45
2022-11-17T11:27:34.087Z,43.05
2022-11-17T11:32:49.253Z,42.47
2022-11-17T11:38:00.501Z,42.92
2022-11-17T11:43:08.786Z,50.58
2022-11-17T11:48:11.877Z,53.60
2022-11-17T11:53:37.262Z,51.28
2022-11-17T11:58:34.113Z,55.92
2022-11-17T12:03:30.396Z,55.92
2022-11-17T12:08:35.811Z,63.00
2022-11-17T12:13:32.120Z,73.25
2022-11-17T12:18:31.060Z,76.82
2022-11-17T12:23:34.396Z,80.95
2022-11-17T12:28:30.701Z,83.18
2022-11-17T12:33:45.708Z,87.38
2022-11-17T12:38:41.967Z,91.45
2022-11-17T12:43:38.187Z,92.05
2022-11-17T12:48:38.514Z,96.03
2022-11-17T12:53:55.097Z,99.53
2022-11-17T12:58:51.368Z,98.53
2022-11-17T13:04:06.445Z,97.55
2022-11-17T13:09:06.116Z,96.53
2022-11-17T13:14:11.916Z,104.05
2022-11-17T13:19:27.682Z,103.63
2022-11-17T13:24:34.429Z,104.40
2022-11-17T13:29:30.818Z,105.82
2022-11-17T13:34:27.420Z,105.90
2022-11-17T13:39:27.446Z,110.18
2022-11-17T13:44:25.439Z,110.28
2022-11-17T13:49:30.739Z,115.68
2022-11-17T13:54:27.515Z,110.38
2022-11-17T13:59:28.374Z,111.55
2022-11-17T14:04:24.972Z,106.18
2022-11-17T14:09:21.334Z,107.70
2022-11-17T14:14:23.111Z,110.28
2022-11-17T14:19:20.298Z,113.77
2022-11-17T14:24:16.908Z,110.82
2022-11-17T14:29:13.418Z,114.95
2022-11-17T14:34:09.756Z,113.82
2022-11-17T14:39:16.285Z,113.15
2022-11-17T14:44:13.112Z,114.93
2022-11-17T14:49:09.622Z,116.18
2022-11-17T14:54:05.920Z,113.93
2022-11-17T14:59:02.390Z,111.00
2022-11-17T15:04:00.277Z,114.53
2022-11-17T15:08:59.059Z,115.40
2022-11-17T15:13:55.717Z,114.63
2022-11-17T15:18:52.008Z,108.53
2022-11-17T15:23:48.308Z,117.35
2022-11-17T15:28:45.008Z,111.10
2022-11-17T15:33:41.646Z,117.15
2022-11-17T15:38:38.544Z,109.53
2022-11-17T15:43:36.080Z,111.53
2022-11-17T15:48:33.396Z,115.43
2022-11-17T15:53:30.874Z,112.43
2022-11-17T15:58:27.153Z,113.15
2022-11-17T16:03:23.391Z,110.90
2022-11-17T16:08:19.648Z,113.88
2022-11-17T16:13:15.844Z,108.60
2022-11-17T16:18:12.116Z,110.60
2022-11-17T16:23:08.319Z,111.93
2022-11-17T16:28:04.769Z,110.40
2022-11-17T16:33:01.041Z,108.38
2022-11-17T16:37:57.267Z,109.43
2022-11-17T16:42:53.547Z,113.97
2022-11-17T16:47:49.839Z,109.20
2022-11-17T16:52:46.081Z,107.80
2022-11-17T16:57:42.419Z,107.43
2022-11-17T17:02:38.720Z,105.97
2022-11-17T17:07:35.038Z,107.43
2022-11-17T17:12:31.316Z,107.63
2022-11-17T17:17:27.607Z,110.88
2022-11-17T17:22:23.873Z,108.55
2022-11-17T17:27:20.066Z,112.43
2022-11-17T17:32:16.260Z,112.30
2022-11-17T17:37:12.488Z,111.03
2022-11-17T17:42:08.919Z,113.95
2022-11-17T17:47:05.180Z,114.15
2022-11-17T17:52:01.385Z,116.13
2022-11-17T17:56:57.711Z,120.72
2022-11-17T18:01:53.957Z,114.78
2022-11-17T18:06:51.047Z,114.82
2022-11-17T18:11:50.751Z,116.65
2022-11-17T18:16:47.904Z,117.45
2022-11-17T18:21:44.591Z,121.95
2022-11-17T18:26:41.167Z,117.00
2022-11-17T18:31:38.041Z,118.93
2022-11-17T18:36:35.391Z,123.35
2022-11-17T18:41:33.732Z,117.60
2022-11-17T18:46:30.898Z,117.05
2022-11-17T18:51:28.611Z,117.97
2022-11-17T18:56:26.063Z,114.13
2022-11-17T19:01:23.324Z,114.10
2022-11-17T19:06:20.387Z,116.43
2022-11-17T19:11:17.310Z,116.70
2022-11-17T19:16:17.557Z,113.65
2022-11-17T19:21:21.290Z,112.82
2022-11-17T19:26:19.052Z,116.32
2022-11-17T19:31:17.182Z,111.63
2022-11-17T19:36:16.567Z,115.68
2022-11-17T19:41:17.424Z,116.63
2022-11-17T19:46:14.937Z,109.82
2022-11-17T19:51:13.087Z,114.38
2022-11-17T19:56:09.317Z,112.30
2022-11-17T20:01:12.837Z,110.95
2022-11-17T20:06:10.142Z,111.03
2022-11-17T20:11:06.482Z,105.28
2022-11-17T20:16:06.307Z,106.97
2022-11-17T20:21:07.219Z,107.45
2022-11-17T20:26:07.616Z,105.88
2022-11-17T20:31:07.642Z,107.25
2022-11-17T20:36:04.311Z,106.40
2022-11-17T20:41:00.906Z,110.65
2022-11-17T20:45:57.683Z,105.50
2022-11-17T20:50:57.619Z,108.47
2022-11-17T20:55:57.297Z,110.03
2022-11-17T21:00:53.955Z,110.40
2022-11-17T21:05:58.133Z,110.47
2022-11-17T21:10:55.864Z,106.22
2022-11-17T21:16:04.595Z,108.65
2022-11-17T21:21:01.572Z,112.70
2022-11-17T21:25:57.931Z,109.00
2022-11-17T21:31:01.450Z,108.80
2022-11-17T21:36:01.883Z,115.38
2022-11-17T21:41:05.180Z,111.55
2022-11-17T21:46:02.400Z,113.53
2022-11-17T21:50:58.840Z,115.90
2022-11-17T21:56:05.631Z,114.53
2022-11-17T22:01:12.029Z,115.90
2022-11-17T22:06:09.407Z,114.85
2022-11-17T22:11:06.503Z,116.13
2022-11-17T22:16:03.997Z,118.00
2022-11-17T22:21:00.317Z,119.78
2022-11-17T22:25:59.922Z,117.85
2022-11-17T22:30:56.515Z,114.13
2022-11-17T22:35:52.776Z,120.93
2022-11-17T22:40:49.043Z,119.28
2022-11-17T22:45:45.269Z,120.00
2022-11-17T22:50:41.568Z,120.95
2022-11-17T22:55:37.812Z,118.93
2022-11-17T23:00:34.049Z,114.90
2022-11-17T23:05:30.335Z,115.97
2022-11-17T23:10:26.730Z,117.65
2022-11-17T23:15:22.980Z,118.32
2022-11-17T23:20:19.299Z,116.97
2022-11-17T23:25:15.595Z,123.78
2022-11-17T23:30:12.507Z,123.65
2022-11-17T23:35:08.969Z,123.70
2022-11-17T23:40:05.439Z,121.85
2022-11-17T23:45:01.691Z,120.75
2022-11-17T23:49:57.941Z,121.63
2022-11-17T23:54:54.197Z,122.18
2022-11-17T23:59:50.463Z,125.55
